sensor_id;sensor_type;location;lat;lon;timestamp;P1;durP1;ratioP1;P2;durP2;ratioP2
74543;SDS011;63016;55.030;38.710;2023-01-10T00:01:54;8.18;;;1.85;;
74543;SDS011;63016;55.030;38.710;2023-01-10T00:04:21;5.30;;;2.30;;
74543;SDS011;63016;55.030;38.710;2023-01-10T00:06:47;6.30;;;2.10;;
74543;SDS011;63016;55.030;38.710;2023-01-10T00:09:12;7.25;;;2.28;;
74543;SDS011;63016;55.030;38.710;2023-01-10T00:11:38;9.05;;;2.05;;
74543;SDS011;63016;55.030;38.710;2023-01-10T00:14:22;5.90;;;1.73;;
74543;SDS011;63016;55.030;38.710;2023-01-10T00:16:48;4.05;;;1.42;;
74543;SDS011;63016;55.030;38.710;2023-01-10T00:19:13;5.40;;;2.03;;
74543;SDS011;63016;55.030;38.710;2023-01-10T00:21:39;9.35;;;2.05;;
74543;SDS011;63016;55.030;38.710;2023-01-10T00:24:05;6.07;;;2.13;;
74543;SDS011;63016;55.030;38.710;2023-01-10T00:26:44;9.45;;;2.40;;
74543;SDS011;63016;55.030;38.710;2023-01-10T00:29:20;7.30;;;2.20;;
74543;SDS011;63016;55.030;38.710;2023-01-10T00:31:47;4.30;;;1.73;;
74543;SDS011;63016;55.030;38.710;2023-01-10T00:34:13;6.10;;;2.42;;
74543;SDS011;63016;55.030;38.710;2023-01-10T00:36:38;7.03;;;2.47;;
74543;SDS011;63016;55.030;38.710;2023-01-10T00:39:04;7.50;;;2.20;;
74543;SDS011;63016;55.030;38.710;2023-01-10T00:41:30;9.40;;;2.40;;
74543;SDS011;63016;55.030;38.710;2023-01-10T00:44:13;8.20;;;1.95;;
74543;SDS011;63016;55.030;38.710;2023-01-10T00:46:39;5.38;;;2.17;;
74543;SDS011;63016;55.030;38.710;2023-01-10T00:49:04;6.93;;;2.05;;
74543;SDS011;63016;55.030;38.710;2023-01-10T00:51:32;7.68;;;2.17;;
74543;SDS011;63016;55.030;38.710;2023-01-10T00:53:58;6.25;;;1.92;;
74543;SDS011;63016;55.030;38.710;2023-01-10T00:56:24;5.90;;;1.90;;
74543;SDS011;63016;55.030;38.710;2023-01-10T00:58:50;9.80;;;2.40;;
74543;SDS011;63016;55.030;38.710;2023-01-10T01:01:15;6.00;;;2.22;;
74543;SDS011;63016;55.030;38.710;2023-01-10T01:03:41;8.45;;;2.47;;
74543;SDS011;63016;55.030;38.710;2023-01-10T01:06:06;5.50;;;2.30;;
74543;SDS011;63016;55.030;38.710;2023-01-10T01:08:32;6.82;;;2.38;;
74543;SDS011;63016;55.030;38.710;2023-01-10T01:10:58;5.30;;;2.25;;
74543;SDS011;63016;55.030;38.710;2023-01-10T01:13:24;6.07;;;1.95;;
74543;SDS011;63016;55.030;38.710;2023-01-10T01:15:49;11.02;;;2.63;;
74543;SDS011;63016;55.030;38.710;2023-01-10T01:18:16;15.45;;;2.78;;
74543;SDS011;63016;55.030;38.710;2023-01-10T01:20:44;6.30;;;2.08;;
74543;SDS011;63016;55.030;38.710;2023-01-10T01:23:11;9.85;;;2.67;;
74543;SDS011;63016;55.030;38.710;2023-01-10T01:25:37;5.03;;;1.90;;
74543;SDS011;63016;55.030;38.710;2023-01-10T01:28:03;8.02;;;2.45;;
74543;SDS011;63016;55.030;38.710;2023-01-10T01:30:29;9.88;;;2.70;;
74543;SDS011;63016;55.030;38.710;2023-01-10T01:32:54;5.38;;;1.85;;
74543;SDS011;63016;55.030;38.710;2023-01-10T01:35:20;5.45;;;1.80;;
74543;SDS011;63016;55.030;38.710;2023-01-10T01:37:46;9.20;;;2.65;;
74543;SDS011;63016;55.030;38.710;2023-01-10T01:40:18;7.75;;;2.95;;
74543;SDS011;63016;55.030;38.710;2023-01-10T01:42:46;6.45;;;2.30;;
74543;SDS011;63016;55.030;38.710;2023-01-10T01:53:12;4.75;;;1.88;;
74543;SDS011;63016;55.030;38.710;2023-01-10T01:55:42;7.13;;;2.13;;
74543;SDS011;63016;55.030;38.710;2023-01-10T01:58:12;10.50;;;2.38;;
74543;SDS011;63016;55.030;38.710;2023-01-10T02:00:42;6.38;;;2.08;;
74543;SDS011;63016;55.030;38.710;2023-01-10T02:03:09;6.55;;;2.08;;
74543;SDS011;63016;55.030;38.710;2023-01-10T02:05:36;5.82;;;1.98;;
74543;SDS011;63016;55.030;38.710;2023-01-10T02:08:04;12.77;;;2.38;;
74543;SDS011;63016;55.030;38.710;2023-01-10T02:13:41;7.72;;;2.47;;
74543;SDS011;63016;55.030;38.710;2023-01-10T02:16:09;12.57;;;2.53;;
74543;SDS011;63016;55.030;38.710;2023-01-10T02:18:36;9.13;;;3.00;;
74543;SDS011;63016;55.030;38.710;2023-01-10T02:24:06;5.43;;;2.00;;
74543;SDS011;63016;55.030;38.710;2023-01-10T02:34:39;7.10;;;2.30;;
74543;SDS011;63016;55.030;38.710;2023-01-10T02:37:23;6.60;;;2.47;;
74543;SDS011;63016;55.030;38.710;2023-01-10T02:39:54;7.95;;;2.38;;
74543;SDS011;63016;55.030;38.710;2023-01-10T02:42:26;6.00;;;2.17;;
74543;SDS011;63016;55.030;38.710;2023-01-10T02:45:05;5.72;;;2.78;;
74543;SDS011;63016;55.030;38.710;2023-01-10T02:47:49;7.82;;;2.30;;
74543;SDS011;63016;55.030;38.710;2023-01-10T02:53:02;13.27;;;3.03;;
74543;SDS011;63016;55.030;38.710;2023-01-10T02:55:48;8.45;;;2.05;;
74543;SDS011;63016;55.030;38.710;2023-01-10T03:15:06;5.75;;;2.03;;
74543;SDS011;63016;55.030;38.710;2023-01-10T03:17:36;6.30;;;2.35;;
74543;SDS011;63016;55.030;38.710;2023-01-10T03:20:03;7.93;;;2.08;;
74543;SDS011;63016;55.030;38.710;2023-01-10T03:22:30;6.00;;;1.73;;
74543;SDS011;63016;55.030;38.710;2023-01-10T03:25:00;6.82;;;1.88;;
74543;SDS011;63016;55.030;38.710;2023-01-10T03:32:50;6.32;;;2.15;;
74543;SDS011;63016;55.030;38.710;2023-01-10T03:35:17;6.30;;;1.80;;
74543;SDS011;63016;55.030;38.710;2023-01-10T03:40:33;7.40;;;1.80;;
74543;SDS011;63016;55.030;38.710;2023-01-10T03:43:08;5.43;;;1.77;;
74543;SDS011;63016;55.030;38.710;2023-01-10T03:46:22;9.65;;;1.80;;
74543;SDS011;63016;55.030;38.710;2023-01-10T03:48:54;7.50;;;1.58;;
74543;SDS011;63016;55.030;38.710;2023-01-10T03:51:22;6.82;;;2.15;;
74543;SDS011;63016;55.030;38.710;2023-01-10T03:53:49;3.38;;;1.15;;
74543;SDS011;63016;55.030;38.710;2023-01-10T03:56:14;5.88;;;1.70;;
74543;SDS011;63016;55.030;38.710;2023-01-10T03:58:40;5.45;;;1.73;;
74543;SDS011;63016;55.030;38.710;2023-01-10T04:01:05;6.35;;;1.70;;
74543;SDS011;63016;55.030;38.710;2023-01-10T04:03:31;6.18;;;2.10;;
74543;SDS011;63016;55.030;38.710;2023-01-10T04:05:56;4.43;;;1.60;;
74543;SDS011;63016;55.030;38.710;2023-01-10T04:08:22;6.78;;;1.88;;
74543;SDS011;63016;55.030;38.710;2023-01-10T04:10:47;6.13;;;2.00;;
74543;SDS011;63016;55.030;38.710;2023-01-10T04:13:13;5.57;;;1.52;;
74543;SDS011;63016;55.030;38.710;2023-01-10T04:15:39;3.35;;;1.38;;
74543;SDS011;63016;55.030;38.710;2023-01-10T04:18:04;4.30;;;1.52;;
74543;SDS011;63016;55.030;38.710;2023-01-10T04:20:30;6.70;;;1.45;;
74543;SDS011;63016;55.030;38.710;2023-01-10T04:22:55;4.75;;;1.40;;
74543;SDS011;63016;55.030;38.710;2023-01-10T04:25:21;4.53;;;1.40;;
74543;SDS011;63016;55.030;38.710;2023-01-10T04:27:48;4.07;;;1.75;;
74543;SDS011;63016;55.030;38.710;2023-01-10T04:30:15;3.80;;;1.30;;
74543;SDS011;63016;55.030;38.710;2023-01-10T04:32:41;8.65;;;1.38;;
74543;SDS011;63016;55.030;38.710;2023-01-10T04:35:06;5.80;;;1.52;;
74543;SDS011;63016;55.030;38.710;2023-01-10T04:37:32;4.95;;;0.88;;
74543;SDS011;63016;55.030;38.710;2023-01-10T04:39:58;4.50;;;1.30;;
74543;SDS011;63016;55.030;38.710;2023-01-10T04:42:23;5.38;;;1.42;;
74543;SDS011;63016;55.030;38.710;2023-01-10T04:44:48;3.05;;;0.95;;
74543;SDS011;63016;55.030;38.710;2023-01-10T04:47:14;2.78;;;1.05;;
74543;SDS011;63016;55.030;38.710;2023-01-10T04:49:39;4.50;;;1.13;;
74543;SDS011;63016;55.030;38.710;2023-01-10T04:52:05;4.22;;;1.27;;
74543;SDS011;63016;55.030;38.710;2023-01-10T04:54:30;6.90;;;1.33;;
74543;SDS011;63016;55.030;38.710;2023-01-10T04:56:56;4.85;;;1.13;;
74543;SDS011;63016;55.030;38.710;2023-01-10T04:59:21;4.32;;;1.20;;
74543;SDS011;63016;55.030;38.710;2023-01-10T05:01:47;2.05;;;1.00;;
74543;SDS011;63016;55.030;38.710;2023-01-10T05:04:12;3.92;;;1.63;;
74543;SDS011;63016;55.030;38.710;2023-01-10T05:06:38;4.15;;;1.35;;
74543;SDS011;63016;55.030;38.710;2023-01-10T05:09:05;2.28;;;1.02;;
74543;SDS011;63016;55.030;38.710;2023-01-10T05:11:31;3.00;;;1.10;;
74543;SDS011;63016;55.030;38.710;2023-01-10T05:13:57;2.55;;;1.13;;
74543;SDS011;63016;55.030;38.710;2023-01-10T05:16:22;4.07;;;0.90;;
74543;SDS011;63016;55.030;38.710;2023-01-10T05:18:49;3.65;;;1.05;;
74543;SDS011;63016;55.030;38.710;2023-01-10T05:21:16;2.58;;;0.90;;
74543;SDS011;63016;55.030;38.710;2023-01-10T05:23:42;5.03;;;1.20;;
74543;SDS011;63016;55.030;38.710;2023-01-10T05:26:12;5.32;;;1.00;;
74543;SDS011;63016;55.030;38.710;2023-01-10T05:28:39;4.75;;;0.98;;
74543;SDS011;63016;55.030;38.710;2023-01-10T05:31:05;6.60;;;1.25;;
74543;SDS011;63016;55.030;38.710;2023-01-10T05:33:31;5.18;;;0.80;;
74543;SDS011;63016;55.030;38.710;2023-01-10T05:35:59;4.03;;;0.95;;
74543;SDS011;63016;55.030;38.710;2023-01-10T05:38:25;2.17;;;0.88;;
74543;SDS011;63016;55.030;38.710;2023-01-10T05:40:53;4.80;;;1.15;;
74543;SDS011;63016;55.030;38.710;2023-01-10T05:43:20;3.45;;;0.82;;
74543;SDS011;63016;55.030;38.710;2023-01-10T05:45:45;4.38;;;1.88;;
74543;SDS011;63016;55.030;38.710;2023-01-10T05:48:11;3.05;;;1.30;;
74543;SDS011;63016;55.030;38.710;2023-01-10T05:50:36;3.30;;;0.80;;
74543;SDS011;63016;55.030;38.710;2023-01-10T05:53:02;3.67;;;1.02;;
74543;SDS011;63016;55.030;38.710;2023-01-10T05:55:30;6.65;;;1.10;;
74543;SDS011;63016;55.030;38.710;2023-01-10T05:57:55;2.75;;;0.80;;
74543;SDS011;63016;55.030;38.710;2023-01-10T06:00:21;4.22;;;1.20;;
74543;SDS011;63016;55.030;38.710;2023-01-10T06:02:47;5.68;;;1.25;;
74543;SDS011;63016;55.030;38.710;2023-01-10T06:05:12;7.15;;;1.25;;
74543;SDS011;63016;55.030;38.710;2023-01-10T06:07:38;2.88;;;1.10;;
74543;SDS011;63016;55.030;38.710;2023-01-10T06:10:03;5.68;;;1.17;;
74543;SDS011;63016;55.030;38.710;2023-01-10T06:12:29;3.22;;;1.00;;
74543;SDS011;63016;55.030;38.710;2023-01-10T06:14:55;5.22;;;1.13;;
74543;SDS011;63016;55.030;38.710;2023-01-10T06:17:20;4.07;;;1.00;;
74543;SDS011;63016;55.030;38.710;2023-01-10T06:19:46;5.03;;;0.82;;
74543;SDS011;63016;55.030;38.710;2023-01-10T06:22:11;3.53;;;0.80;;
74543;SDS011;63016;55.030;38.710;2023-01-10T06:24:37;3.30;;;1.33;;
74543;SDS011;63016;55.030;38.710;2023-01-10T06:27:02;3.40;;;1.17;;
74543;SDS011;63016;55.030;38.710;2023-01-10T06:29:28;4.15;;;1.08;;
74543;SDS011;63016;55.030;38.710;2023-01-10T06:31:53;5.75;;;1.40;;
74543;SDS011;63016;55.030;38.710;2023-01-10T06:34:19;4.85;;;1.10;;
74543;SDS011;63016;55.030;38.710;2023-01-10T06:36:44;3.47;;;0.73;;
74543;SDS011;63016;55.030;38.710;2023-01-10T06:39:10;4.82;;;1.27;;
74543;SDS011;63016;55.030;38.710;2023-01-10T06:41:35;6.20;;;1.15;;
74543;SDS011;63016;55.030;38.710;2023-01-10T06:44:01;2.47;;;1.40;;
74543;SDS011;63016;55.030;38.710;2023-01-10T06:46:26;4.03;;;1.23;;
74543;SDS011;63016;55.030;38.710;2023-01-10T06:48:52;2.15;;;0.73;;
74543;SDS011;63016;55.030;38.710;2023-01-10T06:51:17;3.10;;;0.90;;
74543;SDS011;63016;55.030;38.710;2023-01-10T06:53:43;4.03;;;0.95;;
74543;SDS011;63016;55.030;38.710;2023-01-10T06:56:08;3.10;;;1.02;;
74543;SDS011;63016;55.030;38.710;2023-01-10T06:58:35;3.33;;;1.10;;
74543;SDS011;63016;55.030;38.710;2023-01-10T07:01:03;5.40;;;0.98;;
74543;SDS011;63016;55.030;38.710;2023-01-10T07:03:30;2.10;;;0.80;;
74543;SDS011;63016;55.030;38.710;2023-01-10T07:05:59;4.38;;;1.17;;
74543;SDS011;63016;55.030;38.710;2023-01-10T07:08:25;2.97;;;0.75;;
74543;SDS011;63016;55.030;38.710;2023-01-10T07:10:50;3.70;;;1.02;;
74543;SDS011;63016;55.030;38.710;2023-01-10T07:13:16;2.08;;;0.85;;
74543;SDS011;63016;55.030;38.710;2023-01-10T07:15:41;6.68;;;0.90;;
74543;SDS011;63016;55.030;38.710;2023-01-10T07:18:07;5.20;;;0.90;;
74543;SDS011;63016;55.030;38.710;2023-01-10T07:20:32;3.00;;;0.98;;
74543;SDS011;63016;55.030;38.710;2023-01-10T07:22:58;2.53;;;0.70;;
74543;SDS011;63016;55.030;38.710;2023-01-10T07:25:25;3.13;;;0.98;;
74543;SDS011;63016;55.030;38.710;2023-01-10T07:27:52;2.78;;;0.95;;
74543;SDS011;63016;55.030;38.710;2023-01-10T07:30:20;3.40;;;0.90;;
74543;SDS011;63016;55.030;38.710;2023-01-10T07:32:54;3.42;;;0.90;;
74543;SDS011;63016;55.030;38.710;2023-01-10T07:35:20;3.38;;;0.90;;
74543;SDS011;63016;55.030;38.710;2023-01-10T07:37:47;2.22;;;1.10;;
74543;SDS011;63016;55.030;38.710;2023-01-10T07:40:13;4.68;;;1.20;;
74543;SDS011;63016;55.030;38.710;2023-01-10T07:42:38;2.88;;;1.00;;
74543;SDS011;63016;55.030;38.710;2023-01-10T07:45:04;3.17;;;1.23;;
74543;SDS011;63016;55.030;38.710;2023-01-10T07:47:31;2.50;;;1.00;;
74543;SDS011;63016;55.030;38.710;2023-01-10T07:49:56;5.40;;;1.35;;
74543;SDS011;63016;55.030;38.710;2023-01-10T07:52:22;3.92;;;1.13;;
74543;SDS011;63016;55.030;38.710;2023-01-10T07:54:47;3.33;;;1.27;;
74543;SDS011;63016;55.030;38.710;2023-01-10T07:57:13;3.90;;;1.10;;
74543;SDS011;63016;55.030;38.710;2023-01-10T07:59:39;3.83;;;1.15;;
74543;SDS011;63016;55.030;38.710;2023-01-10T08:02:05;4.95;;;1.42;;
74543;SDS011;63016;55.030;38.710;2023-01-10T08:04:30;3.67;;;1.27;;
74543;SDS011;63016;55.030;38.710;2023-01-10T08:06:56;2.53;;;0.93;;
74543;SDS011;63016;55.030;38.710;2023-01-10T08:09:21;3.83;;;1.10;;
74543;SDS011;63016;55.030;38.710;2023-01-10T08:11:47;4.82;;;1.20;;
74543;SDS011;63016;55.030;38.710;2023-01-10T08:14:12;4.40;;;1.25;;
74543;SDS011;63016;55.030;38.710;2023-01-10T08:16:38;6.05;;;1.52;;
74543;SDS011;63016;55.030;38.710;2023-01-10T08:19:03;5.72;;;1.50;;
74543;SDS011;63016;55.030;38.710;2023-01-10T08:21:29;7.30;;;1.60;;
74543;SDS011;63016;55.030;38.710;2023-01-10T08:23:55;4.97;;;1.25;;
74543;SDS011;63016;55.030;38.710;2023-01-10T08:26:21;10.48;;;1.52;;
74543;SDS011;63016;55.030;38.710;2023-01-10T08:28:46;6.78;;;1.60;;
74543;SDS011;63016;55.030;38.710;2023-01-10T08:31:12;5.63;;;1.77;;
74543;SDS011;63016;55.030;38.710;2023-01-10T08:33:40;3.88;;;1.55;;
74543;SDS011;63016;55.030;38.710;2023-01-10T08:36:12;5.93;;;2.10;;
74543;SDS011;63016;55.030;38.710;2023-01-10T08:38:40;9.98;;;1.88;;
74543;SDS011;63016;55.030;38.710;2023-01-10T08:41:05;8.07;;;1.63;;
74543;SDS011;63016;55.030;38.710;2023-01-10T08:43:31;5.40;;;1.92;;
74543;SDS011;63016;55.030;38.710;2023-01-10T08:45:57;9.05;;;1.65;;
74543;SDS011;63016;55.030;38.710;2023-01-10T08:48:22;5.38;;;1.60;;
74543;SDS011;63016;55.030;38.710;2023-01-10T08:50:48;4.57;;;1.70;;
74543;SDS011;63016;55.030;38.710;2023-01-10T08:53:13;5.72;;;1.85;;
74543;SDS011;63016;55.030;38.710;2023-01-10T08:55:39;5.45;;;1.95;;
74543;SDS011;63016;55.030;38.710;2023-01-10T08:58:04;7.07;;;2.10;;
74543;SDS011;63016;55.030;38.710;2023-01-10T09:00:30;6.93;;;2.45;;
74543;SDS011;63016;55.030;38.710;2023-01-10T09:02:55;5.20;;;1.52;;
74543;SDS011;63016;55.030;38.710;2023-01-10T09:05:21;5.20;;;1.58;;
74543;SDS011;63016;55.030;38.710;2023-01-10T09:07:47;7.90;;;2.22;;
74543;SDS011;63016;55.030;38.710;2023-01-10T09:10:13;6.03;;;1.83;;
74543;SDS011;63016;55.030;38.710;2023-01-10T09:12:38;6.95;;;2.00;;
74543;SDS011;63016;55.030;38.710;2023-01-10T09:15:20;5.80;;;2.00;;
74543;SDS011;63016;55.030;38.710;2023-01-10T09:17:51;6.47;;;1.85;;
74543;SDS011;63016;55.030;38.710;2023-01-10T09:20:18;6.43;;;1.90;;
74543;SDS011;63016;55.030;38.710;2023-01-10T09:22:44;9.30;;;2.38;;
74543;SDS011;63016;55.030;38.710;2023-01-10T09:25:10;6.15;;;2.38;;
74543;SDS011;63016;55.030;38.710;2023-01-10T09:27:35;3.67;;;1.67;;
74543;SDS011;63016;55.030;38.710;2023-01-10T09:30:01;4.22;;;1.90;;
74543;SDS011;63016;55.030;38.710;2023-01-10T09:32:26;8.48;;;2.58;;
74543;SDS011;63016;55.030;38.710;2023-01-10T09:34:51;5.18;;;1.95;;
74543;SDS011;63016;55.030;38.710;2023-01-10T09:37:17;8.40;;;2.30;;
74543;SDS011;63016;55.030;38.710;2023-01-10T09:39:42;5.43;;;1.67;;
74543;SDS011;63016;55.030;38.710;2023-01-10T09:44:41;4.85;;;2.28;;
74543;SDS011;63016;55.030;38.710;2023-01-10T09:47:44;12.55;;;2.40;;
74543;SDS011;63016;55.030;38.710;2023-01-10T09:50:31;4.43;;;1.75;;
74543;SDS011;63016;55.030;38.710;2023-01-10T09:53:12;6.72;;;2.30;;
74543;SDS011;63016;55.030;38.710;2023-01-10T09:55:43;10.27;;;2.45;;
74543;SDS011;63016;55.030;38.710;2023-01-10T09:58:15;8.77;;;2.50;;
74543;SDS011;63016;55.030;38.710;2023-01-10T10:08:48;6.50;;;1.58;;
74543;SDS011;63016;55.030;38.710;2023-01-10T10:25:50;8.93;;;1.92;;
74543;SDS011;63016;55.030;38.710;2023-01-10T10:39:41;7.25;;;2.08;;
74543;SDS011;63016;55.030;38.710;2023-01-10T10:42:14;7.65;;;1.73;;
74543;SDS011;63016;55.030;38.710;2023-01-10T10:47:17;6.38;;;1.90;;
74543;SDS011;63016;55.030;38.710;2023-01-10T10:49:55;5.15;;;1.73;;
74543;SDS011;63016;55.030;38.710;2023-01-10T10:52:32;6.78;;;2.33;;
74543;SDS011;63016;55.030;38.710;2023-01-10T10:55:00;7.05;;;2.17;;
74543;SDS011;63016;55.030;38.710;2023-01-10T10:57:28;10.02;;;1.75;;
74543;SDS011;63016;55.030;38.710;2023-01-10T10:59:56;5.15;;;1.75;;
74543;SDS011;63016;55.030;38.710;2023-01-10T11:02:31;5.97;;;1.70;;
74543;SDS011;63016;55.030;38.710;2023-01-10T11:05:03;7.82;;;2.60;;
74543;SDS011;63016;55.030;38.710;2023-01-10T11:07:33;5.25;;;2.03;;
74543;SDS011;63016;55.030;38.710;2023-01-10T11:10:02;7.00;;;2.33;;
74543;SDS011;63016;55.030;38.710;2023-01-10T11:12:38;8.88;;;2.15;;
74543;SDS011;63016;55.030;38.710;2023-01-10T11:15:12;6.88;;;2.10;;
74543;SDS011;63016;55.030;38.710;2023-01-10T11:18:15;5.53;;;1.95;;
74543;SDS011;63016;55.030;38.710;2023-01-10T11:21:04;6.32;;;2.20;;
74543;SDS011;63016;55.030;38.710;2023-01-10T11:26:06;6.65;;;2.30;;
74543;SDS011;63016;55.030;38.710;2023-01-10T11:28:33;8.02;;;2.30;;
74543;SDS011;63016;55.030;38.710;2023-01-10T11:31:00;7.10;;;2.15;;
74543;SDS011;63016;55.030;38.710;2023-01-10T11:33:31;6.85;;;2.35;;
74543;SDS011;63016;55.030;38.710;2023-01-10T11:36:05;6.00;;;2.25;;
74543;SDS011;63016;55.030;38.710;2023-01-10T11:38:32;5.47;;;2.13;;
74543;SDS011;63016;55.030;38.710;2023-01-10T11:40:59;6.47;;;1.92;;
74543;SDS011;63016;55.030;38.710;2023-01-10T11:44:13;7.88;;;2.42;;
74543;SDS011;63016;55.030;38.710;2023-01-10T11:46:44;9.45;;;2.20;;
74543;SDS011;63016;55.030;38.710;2023-01-10T11:49:14;7.50;;;2.58;;
74543;SDS011;63016;55.030;38.710;2023-01-10T11:51:49;5.93;;;2.08;;
74543;SDS011;63016;55.030;38.710;2023-01-10T11:54:18;8.35;;;2.45;;
74543;SDS011;63016;55.030;38.710;2023-01-10T11:56:57;5.75;;;2.38;;
74543;SDS011;63016;55.030;38.710;2023-01-10T11:59:23;7.50;;;2.75;;
74543;SDS011;63016;55.030;38.710;2023-01-10T12:01:53;5.32;;;1.88;;
74543;SDS011;63016;55.030;38.710;2023-01-10T12:04:21;5.40;;;2.25;;
74543;SDS011;63016;55.030;38.710;2023-01-10T12:06:50;7.32;;;2.45;;
74543;SDS011;63016;55.030;38.710;2023-01-10T12:10:02;6.93;;;2.45;;
74543;SDS011;63016;55.030;38.710;2023-01-10T12:12:32;7.20;;;2.00;;
74543;SDS011;63016;55.030;38.710;2023-01-10T12:17:46;5.78;;;1.95;;
74543;SDS011;63016;55.030;38.710;2023-01-10T12:20:12;4.55;;;1.75;;
74543;SDS011;63016;55.030;38.710;2023-01-10T12:22:44;6.40;;;2.97;;
74543;SDS011;63016;55.030;38.710;2023-01-10T12:25:28;5.22;;;2.22;;
74543;SDS011;63016;55.030;38.710;2023-01-10T12:27:59;5.22;;;2.20;;
74543;SDS011;63016;55.030;38.710;2023-01-10T12:32:54;5.85;;;2.10;;
74543;SDS011;63016;55.030;38.710;2023-01-10T12:35:22;8.07;;;3.00;;
74543;SDS011;63016;55.030;38.710;2023-01-10T12:38:03;6.30;;;2.08;;
74543;SDS011;63016;55.030;38.710;2023-01-10T12:40:46;4.40;;;2.20;;
74543;SDS011;63016;55.030;38.710;2023-01-10T12:43:18;7.22;;;1.92;;
74543;SDS011;63016;55.030;38.710;2023-01-10T12:46:08;6.60;;;1.92;;
74543;SDS011;63016;55.030;38.710;2023-01-10T12:49:27;6.25;;;2.13;;
74543;SDS011;63016;55.030;38.710;2023-01-10T12:51:38;5.72;;;1.83;;
74543;SDS011;63016;55.030;38.710;2023-01-10T12:54:11;6.28;;;2.53;;
74543;SDS011;63016;55.030;38.710;2023-01-10T12:56:42;8.45;;;2.10;;
74543;SDS011;63016;55.030;38.710;2023-01-10T12:59:14;5.88;;;2.15;;
74543;SDS011;63016;55.030;38.710;2023-01-10T13:01:44;8.35;;;2.08;;
74543;SDS011;63016;55.030;38.710;2023-01-10T13:04:19;5.68;;;2.42;;
74543;SDS011;63016;55.030;38.710;2023-01-10T13:06:46;5.25;;;1.77;;
74543;SDS011;63016;55.030;38.710;2023-01-10T13:17:42;7.10;;;2.53;;
74543;SDS011;63016;55.030;38.710;2023-01-10T13:22:41;6.53;;;1.95;;
74543;SDS011;63016;55.030;38.710;2023-01-10T13:28:04;5.97;;;1.92;;
74543;SDS011;63016;55.030;38.710;2023-01-10T13:30:40;3.88;;;1.73;;
74543;SDS011;63016;55.030;38.710;2023-01-10T13:33:07;6.93;;;2.20;;
74543;SDS011;63016;55.030;38.710;2023-01-10T13:35:45;8.57;;;2.00;;
74543;SDS011;63016;55.030;38.710;2023-01-10T13:38:20;6.38;;;2.10;;
74543;SDS011;63016;55.030;38.710;2023-01-10T13:40:57;8.10;;;1.98;;
74543;SDS011;63016;55.030;38.710;2023-01-10T13:51:18;5.90;;;1.80;;
74543;SDS011;63016;55.030;38.710;2023-01-10T13:58:54;4.60;;;2.08;;
74543;SDS011;63016;55.030;38.710;2023-01-10T14:01:38;7.45;;;2.30;;
74543;SDS011;63016;55.030;38.710;2023-01-10T14:04:24;6.70;;;1.98;;
74543;SDS011;63016;55.030;38.710;2023-01-10T14:06:56;6.25;;;2.08;;
74543;SDS011;63016;55.030;38.710;2023-01-10T14:09:28;5.68;;;1.80;;
74543;SDS011;63016;55.030;38.710;2023-01-10T14:12:00;5.60;;;1.88;;
74543;SDS011;63016;55.030;38.710;2023-01-10T14:14:32;7.47;;;2.20;;
74543;SDS011;63016;55.030;38.710;2023-01-10T14:19:43;11.65;;;2.45;;
74543;SDS011;63016;55.030;38.710;2023-01-10T14:22:28;5.05;;;1.63;;
74543;SDS011;63016;55.030;38.710;2023-01-10T14:24:56;5.40;;;1.58;;
74543;SDS011;63016;55.030;38.710;2023-01-10T14:27:23;5.07;;;1.73;;
74543;SDS011;63016;55.030;38.710;2023-01-10T14:29:53;8.60;;;1.75;;
74543;SDS011;63016;55.030;38.710;2023-01-10T14:32:30;6.30;;;2.13;;
74543;SDS011;63016;55.030;38.710;2023-01-10T14:34:56;6.95;;;1.90;;
74543;SDS011;63016;55.030;38.710;2023-01-10T14:37:30;7.72;;;2.25;;
74543;SDS011;63016;55.030;38.710;2023-01-10T14:40:03;5.40;;;1.77;;
74543;SDS011;63016;55.030;38.710;2023-01-10T14:42:31;5.85;;;2.05;;
74543;SDS011;63016;55.030;38.710;2023-01-10T14:45:00;5.97;;;1.73;;
74543;SDS011;63016;55.030;38.710;2023-01-10T14:47:33;5.13;;;1.85;;
74543;SDS011;63016;55.030;38.710;2023-01-10T14:50:00;6.15;;;1.95;;
74543;SDS011;63016;55.030;38.710;2023-01-10T14:52:27;7.97;;;2.58;;
74543;SDS011;63016;55.030;38.710;2023-01-10T14:55:15;6.45;;;2.25;;
74543;SDS011;63016;55.030;38.710;2023-01-10T14:57:51;4.68;;;1.50;;
74543;SDS011;63016;55.030;38.710;2023-01-10T15:00:30;10.32;;;1.98;;
74543;SDS011;63016;55.030;38.710;2023-01-10T15:02:59;6.55;;;2.03;;
74543;SDS011;63016;55.030;38.710;2023-01-10T15:05:29;10.13;;;2.22;;
74543;SDS011;63016;55.030;38.710;2023-01-10T15:10:51;4.90;;;1.95;;
74543;SDS011;63016;55.030;38.710;2023-01-10T15:13:26;4.82;;;2.17;;
74543;SDS011;63016;55.030;38.710;2023-01-10T15:15:54;6.03;;;1.98;;
74543;SDS011;63016;55.030;38.710;2023-01-10T15:21:04;6.47;;;2.13;;
74543;SDS011;63016;55.030;38.710;2023-01-10T15:23:37;6.43;;;1.65;;
74543;SDS011;63016;55.030;38.710;2023-01-10T15:26:05;10.30;;;2.10;;
74543;SDS011;63016;55.030;38.710;2023-01-10T15:28:34;6.63;;;2.03;;
74543;SDS011;63016;55.030;38.710;2023-01-10T15:31:04;9.32;;;2.00;;
74543;SDS011;63016;55.030;38.710;2023-01-10T15:33:32;7.07;;;2.42;;
74543;SDS011;63016;55.030;38.710;2023-01-10T15:36:09;6.78;;;2.10;;
74543;SDS011;63016;55.030;38.710;2023-01-10T15:38:40;5.57;;;1.40;;
74543;SDS011;63016;55.030;38.710;2023-01-10T15:41:08;4.72;;;1.63;;
74543;SDS011;63016;55.030;38.710;2023-01-10T15:43:40;7.60;;;1.73;;
74543;SDS011;63016;55.030;38.710;2023-01-10T15:46:05;6.78;;;1.98;;
74543;SDS011;63016;55.030;38.710;2023-01-10T15:48:52;7.47;;;1.98;;
74543;SDS011;63016;55.030;38.710;2023-01-10T15:56:46;5.30;;;1.50;;
74543;SDS011;63016;55.030;38.710;2023-01-10T16:04:47;7.30;;;1.85;;
74543;SDS011;63016;55.030;38.710;2023-01-10T16:09:51;6.43;;;2.13;;
74543;SDS011;63016;55.030;38.710;2023-01-10T16:12:25;7.28;;;1.92;;
74543;SDS011;63016;55.030;38.710;2023-01-10T16:15:23;9.50;;;2.55;;
74543;SDS011;63016;55.030;38.710;2023-01-10T16:17:51;6.55;;;1.83;;
74543;SDS011;63016;55.030;38.710;2023-01-10T16:20:18;7.20;;;2.25;;
74543;SDS011;63016;55.030;38.710;2023-01-10T16:22:45;6.75;;;1.88;;
74543;SDS011;63016;55.030;38.710;2023-01-10T16:25:17;6.00;;;1.70;;
74543;SDS011;63016;55.030;38.710;2023-01-10T16:27:46;7.15;;;2.50;;
74543;SDS011;63016;55.030;38.710;2023-01-10T16:30:23;12.57;;;2.75;;
74543;SDS011;63016;55.030;38.710;2023-01-10T16:32:50;5.32;;;1.48;;
74543;SDS011;63016;55.030;38.710;2023-01-10T16:35:16;6.30;;;2.38;;
74543;SDS011;63016;55.030;38.710;2023-01-10T16:37:44;9.50;;;2.47;;
74543;SDS011;63016;55.030;38.710;2023-01-10T16:43:04;6.80;;;2.30;;
74543;SDS011;63016;55.030;38.710;2023-01-10T16:45:42;6.25;;;2.25;;
74543;SDS011;63016;55.030;38.710;2023-01-10T16:48:19;5.35;;;1.90;;
74543;SDS011;63016;55.030;38.710;2023-01-10T16:50:46;5.13;;;1.90;;
74543;SDS011;63016;55.030;38.710;2023-01-10T16:53:13;7.63;;;1.65;;
74543;SDS011;63016;55.030;38.710;2023-01-10T16:55:50;8.25;;;1.90;;
74543;SDS011;63016;55.030;38.710;2023-01-10T16:58:18;6.07;;;1.75;;
74543;SDS011;63016;55.030;38.710;2023-01-10T17:00:44;4.95;;;1.92;;
74543;SDS011;63016;55.030;38.710;2023-01-10T17:03:31;6.05;;;1.80;;
74543;SDS011;63016;55.030;38.710;2023-01-10T17:06:03;6.45;;;1.90;;
74543;SDS011;63016;55.030;38.710;2023-01-10T17:08:29;5.57;;;2.10;;
74543;SDS011;63016;55.030;38.710;2023-01-10T17:10:58;9.73;;;2.22;;
74543;SDS011;63016;55.030;38.710;2023-01-10T17:13:26;10.30;;;2.47;;
74543;SDS011;63016;55.030;38.710;2023-01-10T17:15:55;5.45;;;1.42;;